createdAt,value
2022-11-17T00:00:43.763Z,4.90
2022-11-17T00:03:15.608Z,4.80
2022-11-17T00:05:42.833Z,4.80
2022-11-17T00:08:10.225Z,4.80
2022-11-17T00:10:39.206Z,4.80
2022-11-17T00:13:29.355Z,4.80
2022-11-17T00:15:56.814Z,4.80
2022-11-17T00:18:42.212Z,4.80
2022-11-17T00:21:19.333Z,4.70
2022-11-17T00:23:51.630Z,4.80
2022-11-17T00:26:23.129Z,4.90
2022-11-17T00:28:54.859Z,4.90
2022-11-17T00:31:41.120Z,4.90
2022-11-17T00:34:12.967Z,4.90
2022-11-17T00:36:53.096Z,4.90
2022-11-17T00:39:24.173Z,4.90
2022-11-17T00:41:53.494Z,4.90
2022-11-17T00:44:20.514Z,4.90
2022-11-17T00:46:48.379Z,4.90
2022-11-17T00:49:17.764Z,4.80
2022-11-17T00:51:47.154Z,4.90
2022-11-17T00:54:16.591Z,4.90
2022-11-17T00:56:43.328Z,5.00
2022-11-17T00:59:10.863Z,5.00
2022-11-17T01:01:38.148Z,5.00
2022-11-17T01:04:05.437Z,5.10
2022-11-17T01:06:44.545Z,5.10
2022-11-17T01:09:17.898Z,5.10
2022-11-17T01:11:45.306Z,5.10
2022-11-17T01:14:19.300Z,5.00
2022-11-17T01:16:46.350Z,4.90
2022-11-17T01:19:14.892Z,5.00
2022-11-17T01:21:42.080Z,5.00
2022-11-17T01:24:11.651Z,5.00
2022-11-17T01:26:39.800Z,4.90
2022-11-17T01:29:07.854Z,4.80
2022-11-17T01:31:38.116Z,4.70
2022-11-17T01:34:05.819Z,4.70
2022-11-17T01:36:55.030Z,4.70
2022-11-17T01:39:25.990Z,4.70
2022-11-17T01:41:54.393Z,4.70
2022-11-17T01:44:49.042Z,4.70
2022-11-17T01:47:35.048Z,4.70
2022-11-17T01:50:12.681Z,4.70
2022-11-17T01:52:41.149Z,4.70
2022-11-17T01:55:12.521Z,4.70
2022-11-17T01:57:45.320Z,4.70
2022-11-17T02:00:12.651Z,4.70
2022-11-17T02:02:42.156Z,4.70
2022-11-17T02:05:22.119Z,4.70
2022-11-17T02:07:52.612Z,4.70
2022-11-17T02:10:19.383Z,4.70
2022-11-17T02:12:46.315Z,4.70
2022-11-17T02:15:13.477Z,4.70
2022-11-17T02:17:42.447Z,4.80
2022-11-17T02:20:17.767Z,4.70
2022-11-17T02:23:11.775Z,4.70
2022-11-17T02:25:50.624Z,4.70
2022-11-17T02:28:51.207Z,4.80
2022-11-17T02:31:26.877Z,4.80
2022-11-17T02:34:37.833Z,4.70
2022-11-17T02:37:28.789Z,4.80
2022-11-17T02:40:31.819Z,4.80
2022-11-17T02:43:24.296Z,4.90
2022-11-17T02:46:10.633Z,5.00
2022-11-17T02:48:40.848Z,5.00
2022-11-17T02:51:14.410Z,5.10
2022-11-17T02:53:41.588Z,5.10
2022-11-17T02:56:10.667Z,5.20
2022-11-17T02:58:39.724Z,5.30
2022-11-17T03:01:30.555Z,5.30
2022-11-17T03:04:22.025Z,5.30
2022-11-17T03:07:04.653Z,5.30
2022-11-17T03:09:38.362Z,5.30
2022-11-17T03:12:31.094Z,5.40
2022-11-17T03:15:10.278Z,5.30
2022-11-17T03:18:06.952Z,5.40
2022-11-17T03:20:39.003Z,5.20
2022-11-17T03:23:18.028Z,5.20
2022-11-17T03:25:51.482Z,5.20
2022-11-17T03:28:21.630Z,5.30
2022-11-17T03:30:51.080Z,5.40
2022-11-17T03:33:23.613Z,5.30
2022-11-17T03:36:01.261Z,5.30
2022-11-17T03:38:32.937Z,5.20
2022-11-17T03:41:04.780Z,5.30
2022-11-17T03:43:34.532Z,5.30
2022-11-17T03:46:13.087Z,5.30
2022-11-17T03:48:57.393Z,5.40
2022-11-17T03:51:28.968Z,5.40
2022-11-17T03:53:58.016Z,5.30
2022-11-17T03:57:02.024Z,5.50
2022-11-17T03:59:55.432Z,5.40
2022-11-17T04:02:26.685Z,5.30
2022-11-17T04:05:05.577Z,5.40
2022-11-17T04:07:45.051Z,5.40
2022-11-17T04:10:17.311Z,5.40
2022-11-17T04:13:03.578Z,5.50
2022-11-17T04:15:49.379Z,5.50
2022-11-17T04:18:16.211Z,5.40
2022-11-17T04:20:43.371Z,5.40
2022-11-17T04:23:15.009Z,5.50
2022-11-17T04:26:07.974Z,5.50
2022-11-17T04:28:40.493Z,5.50
2022-11-17T04:31:14.734Z,5.50
2022-11-17T04:33:47.054Z,5.50
2022-11-17T04:36:17.519Z,5.40
2022-11-17T04:38:46.694Z,5.50
2022-11-17T04:41:34.184Z,5.50
2022-11-17T04:44:02.388Z,5.40
2022-11-17T04:46:40.288Z,5.30
2022-11-17T04:49:08.923Z,5.20
2022-11-17T04:51:39.372Z,5.20
2022-11-17T04:54:08.227Z,5.20
2022-11-17T04:56:35.623Z,5.10
2022-11-17T04:59:05.705Z,5.10
2022-11-17T05:01:35.264Z,5.10
2022-11-17T05:04:04.718Z,5.30
2022-11-17T05:06:34.973Z,5.50
2022-11-17T05:09:08.392Z,5.50
2022-11-17T05:11:53.733Z,5.50
2022-11-17T05:14:22.547Z,5.50
2022-11-17T05:17:11.904Z,5.50
2022-11-17T05:19:46.775Z,5.50
2022-11-17T05:22:52.132Z,5.40
2022-11-17T05:25:21.345Z,5.50
2022-11-17T05:27:48.227Z,5.40
2022-11-17T05:30:15.294Z,5.40
2022-11-17T05:32:42.011Z,5.30
2022-11-17T05:35:12.158Z,5.40
2022-11-17T05:37:39.584Z,5.50
2022-11-17T05:40:09.770Z,5.50
2022-11-17T05:42:39.780Z,5.50
2022-11-17T05:45:10.271Z,5.40
2022-11-17T05:47:37.121Z,5.40
2022-11-17T05:50:04.150Z,5.40
2022-11-17T05:52:30.952Z,5.40
2022-11-17T05:54:57.665Z,5.50
2022-11-17T05:57:29.142Z,5.50
2022-11-17T06:00:12.044Z,5.50
2022-11-17T06:02:49.175Z,5.50
2022-11-17T06:05:20.281Z,5.50
2022-11-17T06:07:48.059Z,5.60
2022-11-17T06:10:14.948Z,5.60
2022-11-17T06:12:44.038Z,5.60
2022-11-17T06:15:11.007Z,5.70
2022-11-17T06:18:00.491Z,5.60
2022-11-17T06:20:33.154Z,5.60
2022-11-17T06:23:04.505Z,5.60
2022-11-17T06:25:34.944Z,5.60
2022-11-17T06:28:06.916Z,5.60
2022-11-17T06:30:35.471Z,5.60
2022-11-17T06:33:03.647Z,5.60
2022-11-17T06:35:41.514Z,5.60
2022-11-17T06:38:12.350Z,5.60
2022-11-17T06:40:44.377Z,5.70
2022-11-17T06:43:11.312Z,5.60
2022-11-17T06:45:50.178Z,5.70
2022-11-17T06:48:29.875Z,5.60
2022-11-17T06:50:59.106Z,5.60
2022-11-17T06:53:26.701Z,5.60
2022-11-17T06:56:05.367Z,5.60
2022-11-17T06:58:33.004Z,5.60
2022-11-17T07:01:05.684Z,5.60
2022-11-17T07:03:34.594Z,5.70
2022-11-17T07:06:02.758Z,5.70
2022-11-17T07:08:29.990Z,5.70
2022-11-17T07:11:02.278Z,5.70
2022-11-17T07:13:29.546Z,5.60
2022-11-17T07:16:06.109Z,5.70
2022-11-17T07:18:34.282Z,5.70
2022-11-17T07:21:03.920Z,5.60
2022-11-17T07:23:35.215Z,5.70
2022-11-17T07:26:02.623Z,5.80
2022-11-17T07:28:29.977Z,5.80
2022-11-17T07:31:03.465Z,5.80
2022-11-17T07:33:30.952Z,5.80
2022-11-17T07:36:05.994Z,5.90
2022-11-17T07:38:35.212Z,5.70
2022-11-17T07:41:06.113Z,5.60
2022-11-17T07:43:34.240Z,5.70
2022-11-17T07:46:10.696Z,5.70
2022-11-17T07:48:40.637Z,5.70
2022-11-17T07:51:10.459Z,5.80
2022-11-17T07:53:41.958Z,6.10
2022-11-17T07:56:11.140Z,6.40
2022-11-17T07:58:39.061Z,6.60
2022-11-17T08:01:09.881Z,6.50
2022-11-17T08:03:36.931Z,6.40
2022-11-17T08:06:05.060Z,6.30
2022-11-17T08:08:32.938Z,6.30
2022-11-17T08:11:08.653Z,6.30
2022-11-17T08:13:36.402Z,6.20
2022-11-17T08:16:03.926Z,6.20
2022-11-17T08:18:31.203Z,6.30
2022-11-17T08:21:05.622Z,6.20
2022-11-17T08:23:34.224Z,6.20
2022-11-17T08:26:02.548Z,6.20
2022-11-17T08:28:29.855Z,6.10
2022-11-17T08:30:56.960Z,6.00
2022-11-17T08:33:23.866Z,6.10
2022-11-17T08:35:51.104Z,6.20
2022-11-17T08:38:18.235Z,6.30
2022-11-17T08:40:45.975Z,6.20
2022-11-17T08:43:12.852Z,6.10
2022-11-17T08:45:42.455Z,6.10
2022-11-17T08:48:12.421Z,6.10
2022-11-17T08:50:39.297Z,6.00
2022-11-17T08:53:14.434Z,6.10
2022-11-17T08:55:42.265Z,6.30
2022-11-17T08:58:12.253Z,6.40
2022-11-17T09:00:40.702Z,6.40
2022-11-17T09:03:09.539Z,6.50
2022-11-17T09:05:44.423Z,6.50
2022-11-17T09:08:56.009Z,6.40
2022-11-17T09:11:11.979Z,6.30
2022-11-17T09:13:40.087Z,6.40
2022-11-17T09:16:10.708Z,6.40
2022-11-17T09:18:39.731Z,6.30
2022-11-17T09:21:13.223Z,6.30
2022-11-17T09:23:40.350Z,6.20
2022-11-17T09:26:14.581Z,6.20
2022-11-17T09:28:42.342Z,6.10
2022-11-17T09:31:12.164Z,6.20
2022-11-17T09:33:39.683Z,6.10
2022-11-17T09:36:08.143Z,6.10
2022-11-17T09:38:41.565Z,6.10
2022-11-17T09:41:35.852Z,6.20
2022-11-17T09:44:30.968Z,6.20
2022-11-17T09:47:36.815Z,6.30
2022-11-17T09:50:29.041Z,6.50
2022-11-17T09:53:07.250Z,6.70
2022-11-17T09:55:48.400Z,7.00
2022-11-17T09:58:25.235Z,7.00
2022-11-17T10:00:53.131Z,7.10
2022-11-17T10:03:28.686Z,7.30
2022-11-17T10:05:59.229Z,7.30
2022-11-17T10:08:49.911Z,7.40
2022-11-17T10:11:32.692Z,7.50
2022-11-17T10:14:11.306Z,7.50
2022-11-17T10:16:40.835Z,7.40
2022-11-17T10:19:15.748Z,7.30
2022-11-17T10:21:42.727Z,7.30
2022-11-17T10:24:29.932Z,7.20
2022-11-17T10:26:57.698Z,7.20
2022-11-17T10:29:24.758Z,7.30
2022-11-17T10:31:52.100Z,7.30
2022-11-17T10:34:42.707Z,7.20
2022-11-17T10:37:12.657Z,7.30
2022-11-17T10:39:43.343Z,7.40
2022-11-17T10:42:35.381Z,7.50
2022-11-17T10:45:08.583Z,7.30
2022-11-17T10:47:40.361Z,7.30
2022-11-17T10:50:25.717Z,7.30
2022-11-17T10:53:16.061Z,7.20
2022-11-17T10:55:43.852Z,7.20
2022-11-17T10:58:28.543Z,7.60
2022-11-17T11:00:58.632Z,7.90
2022-11-17T11:03:36.516Z,8.40
2022-11-17T11:06:27.497Z,8.60
2022-11-17T11:09:03.981Z,9.00
2022-11-17T11:11:45.892Z,9.30
2022-11-17T11:14:34.154Z,9.30
2022-11-17T11:17:10.108Z,9.20
2022-11-17T11:19:53.099Z,9.00
2022-11-17T11:22:27.932Z,8.80
2022-11-17T11:25:01.369Z,8.60
2022-11-17T11:27:47.512Z,8.20
2022-11-17T11:30:18.277Z,8.00
2022-11-17T11:32:57.235Z,8.00
2022-11-17T11:35:53.788Z,8.00
2022-11-17T11:38:40.681Z,8.10
2022-11-17T11:41:25.718Z,8.20
2022-11-17T11:44:19.213Z,8.30
2022-11-17T11:46:49.389Z,8.50
2022-11-17T11:49:40.852Z,8.60
2022-11-17T11:52:20.902Z,8.70
2022-11-17T11:54:58.915Z,8.70
2022-11-17T11:57:36.692Z,8.70
2022-11-17T12:00:18.064Z,8.70
2022-11-17T12:03:05.521Z,8.70
2022-11-17T12:05:55.267Z,8.80
2022-11-17T12:08:46.568Z,8.90
2022-11-17T12:11:45.378Z,8.90
2022-11-17T12:14:18.196Z,9.00
2022-11-17T12:16:47.283Z,8.80
2022-11-17T12:19:46.965Z,8.90
2022-11-17T12:22:34.728Z,8.90
2022-11-17T12:25:30.737Z,9.20
2022-11-17T12:27:57.987Z,9.30
2022-11-17T12:30:31.061Z,9.40
2022-11-17T12:33:04.203Z,9.40
2022-11-17T12:35:32.420Z,9.50
2022-11-17T12:38:15.283Z,9.50
2022-11-17T12:40:51.637Z,9.60
2022-11-17T12:43:26.362Z,9.60
2022-11-17T12:45:53.183Z,9.50
2022-11-17T12:48:33.482Z,9.30
2022-11-17T12:51:24.586Z,9.20
2022-11-17T12:53:51.515Z,9.20
2022-11-17T12:56:21.095Z,9.20
2022-11-17T12:59:09.491Z,9.30
2022-11-17T13:01:49.041Z,9.30
2022-11-17T13:04:20.439Z,9.10
2022-11-17T13:07:20.318Z,9.10
2022-11-17T13:09:56.878Z,9.10
2022-11-17T13:12:31.394Z,9.00
2022-11-17T13:15:08.411Z,9.10
2022-11-17T13:17:42.013Z,9.10
2022-11-17T13:20:28.376Z,9.20
2022-11-17T13:23:21.482Z,9.10
2022-11-17T13:25:52.334Z,9.20
2022-11-17T13:28:46.175Z,8.90
2022-11-17T13:31:21.524Z,8.90
2022-11-17T13:34:15.933Z,8.90
2022-11-17T13:36:53.690Z,9.10
2022-11-17T13:39:25.744Z,9.30
2022-11-17T13:41:54.986Z,9.50
2022-11-17T13:44:27.661Z,9.70
2022-11-17T13:46:56.519Z,9.90
2022-11-17T13:49:35.711Z,10.00
2022-11-17T13:52:12.823Z,10.20
2022-11-17T13:54:44.478Z,10.10
2022-11-17T13:57:22.803Z,9.90
2022-11-17T13:59:54.936Z,9.70
2022-11-17T14:02:25.888Z,9.30
2022-11-17T14:05:10.849Z,9.00
2022-11-17T14:07:39.870Z,8.60
2022-11-17T14:10:21.876Z,8.30
2022-11-17T14:12:53.069Z,8.10
2022-11-17T14:15:31.173Z,8.00
2022-11-17T14:18:00.112Z,7.90
2022-11-17T14:20:36.570Z,7.90
2022-11-17T14:23:08.873Z,7.80
2022-11-17T14:25:38.918Z,7.80
2022-11-17T14:28:16.046Z,7.80
2022-11-17T14:30:43.772Z,7.80
2022-11-17T14:33:13.581Z,7.80
2022-11-17T14:35:44.366Z,7.80
2022-11-17T14:38:15.926Z,7.90
2022-11-17T14:40:42.929Z,7.90
2022-11-17T14:43:11.956Z,7.90
2022-11-17T14:45:39.004Z,7.80
2022-11-17T14:48:06.115Z,7.80
2022-11-17T14:50:33.270Z,7.80
2022-11-17T14:53:00.149Z,7.80
2022-11-17T14:55:27.379Z,7.80
2022-11-17T14:57:56.626Z,7.70
2022-11-17T15:00:23.592Z,7.70
2022-11-17T15:02:52.522Z,7.70
2022-11-17T15:05:19.458Z,7.50
2022-11-17T15:07:48.338Z,7.40
2022-11-17T15:10:17.394Z,7.40
2022-11-17T15:12:44.190Z,7.40
2022-11-17T15:15:11.150Z,7.30
2022-11-17T15:17:38.050Z,7.20
2022-11-17T15:20:06.648Z,7.10
2022-11-17T15:22:33.504Z,7.10
2022-11-17T15:25:00.274Z,7.10
2022-11-17T15:27:27.310Z,7.10
2022-11-17T15:29:54.249Z,7.00
2022-11-17T15:32:21.353Z,7.00
2022-11-17T15:34:48.119Z,7.10
2022-11-17T15:37:14.834Z,7.20
2022-11-17T15:39:41.872Z,7.20
2022-11-17T15:42:09.309Z,7.10
2022-11-17T15:44:36.234Z,7.10
2022-11-17T15:47:03.541Z,7.20
2022-11-17T15:49:32.794Z,7.10
2022-11-17T15:51:59.604Z,7.00
2022-11-17T15:54:26.407Z,7.00
2022-11-17T15:56:53.421Z,7.00
2022-11-17T15:59:20.585Z,6.90
2022-11-17T16:01:47.822Z,6.80
2022-11-17T16:04:18.376Z,6.90
2022-11-17T16:06:46.582Z,6.80
2022-11-17T16:09:14.082Z,6.70
2022-11-17T16:11:41.607Z,6.70
2022-11-17T16:14:09.543Z,6.70
2022-11-17T16:16:39.220Z,6.50
2022-11-17T16:19:06.434Z,6.40
2022-11-17T16:21:38.484Z,6.50
2022-11-17T16:24:08.142Z,6.50
2022-11-17T16:26:36.011Z,6.40
2022-11-17T16:29:05.462Z,6.30
2022-11-17T16:31:34.796Z,6.30
2022-11-17T16:34:04.343Z,6.30
2022-11-17T16:36:36.846Z,6.30
2022-11-17T16:39:09.096Z,6.30
2022-11-17T16:41:39.242Z,6.20
2022-11-17T16:44:15.332Z,6.10
2022-11-17T16:46:47.203Z,6.10
2022-11-17T16:49:16.169Z,6.10
2022-11-17T16:51:54.533Z,6.10
2022-11-17T16:54:21.657Z,6.10
2022-11-17T16:56:50.683Z,6.10
2022-11-17T16:59:20.150Z,6.20
2022-11-17T17:01:47.563Z,6.20
2022-11-17T17:04:14.498Z,6.30
2022-11-17T17:06:43.399Z,6.30
2022-11-17T17:09:13.277Z,6.30
2022-11-17T17:11:41.079Z,6.30
2022-11-17T17:14:11.371Z,6.30
2022-11-17T17:16:39.351Z,6.20
2022-11-17T17:19:10.111Z,6.20
2022-11-17T17:21:38.306Z,5.90
2022-11-17T17:24:06.226Z,5.80
2022-11-17T17:26:35.118Z,5.70
2022-11-17T17:29:04.136Z,5.70
2022-11-17T17:31:53.247Z,5.60
2022-11-17T17:34:22.342Z,5.60
2022-11-17T17:36:52.998Z,5.60
2022-11-17T17:39:23.177Z,5.40
2022-11-17T17:41:51.889Z,5.30
2022-11-17T17:44:19.589Z,5.30
2022-11-17T17:46:49.862Z,5.20
2022-11-17T17:49:19.843Z,5.00
2022-11-17T17:51:47.186Z,4.90
2022-11-17T17:54:19.982Z,4.90
2022-11-17T17:56:47.824Z,4.80
2022-11-17T17:59:15.939Z,4.60
2022-11-17T18:01:46.260Z,4.50
2022-11-17T18:04:16.232Z,4.40
2022-11-17T18:06:47.157Z,4.50
2022-11-17T18:09:15.600Z,4.60
2022-11-17T18:11:47.878Z,4.70
2022-11-17T18:14:17.368Z,4.70
2022-11-17T18:16:44.173Z,4.80
2022-11-17T18:19:17.376Z,4.80
2022-11-17T18:21:44.396Z,4.80
2022-11-17T18:24:12.542Z,4.70
2022-11-17T18:26:40.991Z,4.60
2022-11-17T18:29:12.450Z,4.50
2022-11-17T18:31:39.826Z,4.60
2022-11-17T18:34:23.450Z,4.70
2022-11-17T18:36:52.043Z,4.80
2022-11-17T18:39:19.573Z,4.90
2022-11-17T18:41:47.031Z,4.80
2022-11-17T18:44:19.735Z,4.90
2022-11-17T18:46:49.408Z,4.90
2022-11-17T18:49:16.712Z,4.80
2022-11-17T18:51:43.854Z,4.70
2022-11-17T18:54:11.845Z,4.70
2022-11-17T18:56:39.955Z,4.60
2022-11-17T18:59:11.877Z,4.40
2022-11-17T19:01:43.412Z,4.40
2022-11-17T19:04:14.368Z,4.40
2022-11-17T19:06:41.609Z,4.30
2022-11-17T19:09:09.251Z,4.20
2022-11-17T19:11:36.233Z,4.10
2022-11-17T19:14:06.865Z,4.10
2022-11-17T19:16:42.576Z,4.00
2022-11-17T19:19:14.314Z,3.90
2022-11-17T19:21:43.882Z,3.90
2022-11-17T19:24:10.848Z,3.90
2022-11-17T19:26:37.676Z,3.80
2022-11-17T19:29:16.750Z,3.70
2022-11-17T19:31:47.014Z,3.50
2022-11-17T19:34:18.508Z,3.50
2022-11-17T19:36:45.290Z,3.70
2022-11-17T19:39:13.031Z,3.80
2022-11-17T19:41:40.490Z,3.70
2022-11-17T19:44:09.300Z,3.90
2022-11-17T19:46:37.177Z,3.60
2022-11-17T19:49:05.994Z,3.70
2022-11-17T19:51:34.603Z,3.80
2022-11-17T19:54:08.117Z,3.50
2022-11-17T19:56:36.588Z,3.50
2022-11-17T19:59:03.605Z,3.50
2022-11-17T20:01:32.006Z,3.70
2022-11-17T20:04:00.528Z,3.60
2022-11-17T20:06:35.366Z,3.60
2022-11-17T20:09:08.030Z,3.60
2022-11-17T20:11:35.870Z,3.50
2022-11-17T20:14:03.276Z,3.60
2022-11-17T20:16:33.299Z,3.60
2022-11-17T20:19:02.046Z,3.70
2022-11-17T20:21:31.839Z,3.70
2022-11-17T20:24:00.428Z,3.50
2022-11-17T20:26:29.382Z,3.40
2022-11-17T20:28:57.353Z,3.40
2022-11-17T20:31:26.212Z,3.30
2022-11-17T20:33:59.493Z,3.60
2022-11-17T20:36:30.024Z,3.50
2022-11-17T20:39:02.163Z,3.40
2022-11-17T20:41:30.225Z,3.40
2022-11-17T20:43:59.714Z,3.50
2022-11-17T20:46:29.037Z,3.30
2022-11-17T20:48:59.633Z,3.20
2022-11-17T20:51:26.909Z,3.20
2022-11-17T20:53:56.210Z,3.10
2022-11-17T20:56:22.933Z,3.20
2022-11-17T20:58:49.806Z,3.30
2022-11-17T21:01:22.690Z,3.30
2022-11-17T21:03:49.698Z,3.20
2022-11-17T21:06:17.678Z,3.30
2022-11-17T21:08:45.712Z,3.20
2022-11-17T21:11:33.927Z,3.20
2022-11-17T21:14:10.718Z,3.10
2022-11-17T21:16:40.313Z,3.00
2022-11-17T21:19:07.933Z,2.90
2022-11-17T21:21:35.718Z,3.00
2022-11-17T21:24:03.088Z,3.20
2022-11-17T21:26:32.684Z,3.20
2022-11-17T21:29:06.421Z,3.20
2022-11-17T21:31:36.235Z,3.10
2022-11-17T21:34:06.032Z,3.20
2022-11-17T21:36:36.367Z,3.10
2022-11-17T21:39:04.011Z,3.20
2022-11-17T21:41:35.191Z,3.20
2022-11-17T21:44:03.220Z,3.30
2022-11-17T21:46:33.689Z,3.50
2022-11-17T21:49:03.523Z,3.80
2022-11-17T21:51:33.735Z,3.90
2022-11-17T21:54:03.539Z,3.90
2022-11-17T21:56:31.923Z,3.90
2022-11-17T21:59:03.538Z,3.80
2022-11-17T22:01:31.663Z,3.80
2022-11-17T22:03:58.763Z,4.00
2022-11-17T22:06:26.654Z,4.10
2022-11-17T22:08:56.436Z,4.10
2022-11-17T22:11:38.602Z,4.10
2022-11-17T22:14:06.127Z,4.00
2022-11-17T22:16:33.661Z,4.00
2022-11-17T22:19:00.900Z,4.00
2022-11-17T22:21:32.808Z,4.10
2022-11-17T22:24:00.177Z,4.10
2022-11-17T22:26:31.597Z,4.10
2022-11-17T22:29:00.768Z,4.10
2022-11-17T22:31:28.453Z,4.10
2022-11-17T22:33:55.173Z,4.20
2022-11-17T22:36:21.931Z,4.10
2022-11-17T22:38:53.008Z,4.20
2022-11-17T22:41:23.762Z,4.10
2022-11-17T22:43:57.640Z,4.00
2022-11-17T22:46:26.488Z,4.00
2022-11-17T22:48:53.462Z,4.00
2022-11-17T22:51:39.776Z,4.00
2022-11-17T22:54:07.873Z,4.10
2022-11-17T22:56:35.445Z,4.10
2022-11-17T22:59:04.312Z,4.10
2022-11-17T23:01:31.491Z,4.20
2022-11-17T23:03:58.783Z,4.30
2022-11-17T23:06:27.293Z,4.30
2022-11-17T23:08:55.683Z,4.30
2022-11-17T23:11:36.471Z,4.30
2022-11-17T23:14:04.132Z,4.30
2022-11-17T23:16:32.086Z,4.30
2022-11-17T23:18:59.284Z,4.30
2022-11-17T23:21:26.725Z,4.40
2022-11-17T23:23:56.017Z,4.30
2022-11-17T23:26:23.162Z,4.30
2022-11-17T23:28:50.026Z,4.40
2022-11-17T23:31:18.027Z,4.40
2022-11-17T23:33:47.379Z,4.40
2022-11-17T23:36:16.620Z,4.40
2022-11-17T23:38:44.428Z,4.50
2022-11-17T23:41:16.577Z,4.50
2022-11-17T23:43:46.315Z,4.50
2022-11-17T23:46:20.093Z,4.60
2022-11-17T23:48:47.711Z,4.50
2022-11-17T23:51:17.032Z,4.50
2022-11-17T23:53:49.893Z,4.50
2022-11-17T23:56:24.667Z,4.50
2022-11-17T23:58:52.342Z,4.40
